Estación Meteorológica Peña el Pijo (Robertgarden) [ 05/26/19 18:57:41 CEST ]

Fecha Hora Presion(HPa) Temp (°C) Humedad % Rocio (°C) Viento ( m/s) Direccion Lluvia 1Hora(mm) Lluvia 24H(mm) LLuvia Total(mm)
2018-Dec-14 01:01:21 1003.400 3.8 73 -0.6       5.69 160.58
2018-Dec-14 02:07:08 1003.400 3.6 71 -1.2       5.69 160.58
2018-Dec-14 03:01:48 1003.500 3.5 71 -1.3 1.0 N   5.69 160.58
2018-Dec-14 04:01:33 1003.900 3.5 69 -1.7 0.9 N   5.69 160.58
2018-Dec-14 05:01:43 1003.800 3.2 70 -1.7       5.69 160.58
2018-Dec-14 06:01:50 1004.000 2.7 72 -1.8 0.5 NNW   5.69 160.58
2018-Dec-14 07:01:53 1005.500 2.7 72 -1.8 0.7 NNW   5.69 160.58
2018-Dec-14 08:01:49 1006.700 2.5 74 -1.7       5.69 160.58
2018-Dec-14 09:01:47 1007.700 2.7 74 -1.5       5.69 160.58
2018-Dec-14 10:01:46 1008.600 3.2 73 -1.2       5.69 160.58
2018-Dec-14 11:01:45 1009.600 3.5 72 -1.1       4.14 160.58
2018-Dec-14 12:01:48 1010.100 3.6 73 -0.8 1.0 NW   3.10 160.58
2018-Dec-14 13:01:38 1009.800 5.8 69 0.6       3.10 160.58
2018-Dec-14 14:01:51 1010.100 6.8 64 0.4 1.3 NNW   2.59 160.58
2018-Dec-14 15:01:49 1009.700 7.3 61 0.3 1.7 N   1.55 160.58
2018-Dec-14 16:01:40 1010.300 6.4 60 -0.8       1.03 160.58
2018-Dec-14 17:01:38 1010.900 5.0 66 -0.8       1.03 160.58
2018-Dec-14 18:01:43 1011.300 3.9 69 -1.3       0.51 160.58
2018-Dec-14 19:01:39 1011.700 2.0 72 -2.5       0.51 160.58
2018-Dec-14 20:01:38 1012.900 1.9 75 -2.1       0.51 160.58
2018-Dec-14 21:01:43 1013.200 0.6 77 -3.0         160.58
2018-Dec-14 22:01:54 1013.400 -0.4 79 -3.6         160.58
2018-Dec-14 23:01:42 1013.300 -0.2 81 -3.0         160.58

Temperatura Máxima:    Temperatura Mínima:
Presión Máxima:1013.400 Hpa    Presión Mínima:1003.400 Hpa


Volver